METAR KGEV 192356Z AUTO 00000KT 1/4SM FZFG OVC001 M02/M02 A3000 RMK AO2 
METAR KGEV 192336Z AUTO 00000KT 1/4SM FZFG OVC001 M02/M02 A2999 RMK AO2 
METAR KGEV 192316Z AUTO 00000KT 1/4SM FZFG OVC001 M02/M02 A2999 RMK AO2 
METAR KGEV 192256Z AUTO 00000KT 1/2SM FZFG OVC001 M02/M02 A2999 RMK AO2 
METAR KGEV 192236Z AUTO 00000KT 1/2SM FZFG OVC001 M02/M02 A2999 RMK AO2 
METAR KGEV 192216Z AUTO 00000KT 1/2SM FZFG OVC001 M02/M02 A2999 RMK AO2 
METAR KGEV 192156Z AUTO 00000KT 1 3/4SM BR OVC001 M02/M02 A2998 RMK AO2 
METAR KGEV 192136Z AUTO 15003KT 2 1/2SM BR OVC001 M02/M02 A2998 RMK AO2 
METAR KGEV 192116Z AUTO 13003KT 5SM BR OVC003 M01/M02 A2998 RMK AO2 
METAR KGEV 192056Z AUTO 00000KT 7SM OVC003 M01/M02 A2998 RMK AO2 
METAR KGEV 192036Z AUTO 14003KT 7SM OVC003 M01/M02 A2999 RMK AO2 
METAR KGEV 192016Z AUTO 00000KT 4SM -SN OVC001 M01/M02 A2999 RMK AO2 P0000 
METAR KGEV 191956Z AUTO 00000KT 4SM BR OVC001 M01/M02 A2999 RMK AO2 
METAR KGEV 191936Z AUTO 00000KT 1 3/4SM -SN OVC001 M01/M02 A2998 RMK AO2 P0000 
METAR KGEV 191916Z AUTO 00000KT 1SM -SN OVC001 M02/M02 A3000 RMK AO2 P0000 
METAR KGEV 191856Z AUTO 00000KT 1SM -SN OVC005 M01/M02 A3002 RMK AO2 P0000 
METAR KGEV 191836Z AUTO 00000KT 3/4SM -SN OVC005 M02/M03 A3000 RMK AO2 P0003 
METAR KGEV 191816Z AUTO 00000KT 3/4SM -SN OVC005 M02/M03 A3000 RMK AO2 P0001 
METAR KGEV 191756Z AUTO 00000KT 3/4SM -SN OVC005 M02/M03 A3003 RMK AO2 P0000 
METAR KGEV 191736Z AUTO 00000KT 1 1/2SM -SN BKN003 OVC012 M02/M03 A3004 RMK AO2 P0000 
METAR KGEV 191716Z AUTO 00000KT 1 1/2SM -SN BKN005 OVC009 M02/M03 A3005 RMK AO2 P0000 
METAR KGEV 191716Z AUTO 00000KT 1 1/2SM -SN BKN005 OVC009 M02/M03 A3005 RMK AO2 P0000 
METAR KGEV 191656Z AUTO 00000KT 1 1/2SM -SN BKN005 OVC009 M02/M03 A3005 RMK AO2 P0000 
METAR KGEV 191636Z AUTO 00000KT 1 1/4SM -SN BKN005 OVC009 M02/M03 A3007 RMK AO2 P0001 
METAR KGEV 191616Z AUTO 00000KT 3/4SM -SN OVC009 M02/M03 A3009 RMK AO2 P0000 
METAR KGEV 191556Z AUTO 00000KT 1 1/4SM -SN BKN009 OVC017 M02/M03 A3009 RMK AO2 P0000 
METAR KGEV 191536Z AUTO 00000KT 2SM -SN BKN009 OVC016 M01/M03 A3012 RMK AO2 P0000 
METAR KGEV 191516Z AUTO 17003KT 2 1/2SM -SN OVC017 M01/M05 A3010 RMK AO2 P0000 
METAR KGEV 191456Z AUTO 00000KT 2 1/2SM -SN SCT015 OVC022 00/M06 A3009 RMK AO2 P0000 
METAR KGEV 191436Z AUTO 00000KT 10SM OVC024 00/M08 A3008 RMK AO2 
METAR KGEV 191416Z AUTO 00000KT 10SM BKN026 OVC033 00/M10 A3010 RMK AO2 
METAR KGEV 191356Z AUTO 00000KT 10SM BKN034 OVC048 00/M11 A3009 RMK AO2 
METAR KGEV 191336Z AUTO 00000KT 10SM SCT034 SCT039 OVC048 00/M10 A3009 RMK AO2 
METAR KGEV 191316Z AUTO 00000KT 10SM OVC050 00/M11 A3007 RMK AO2 
METAR KGEV 191256Z AUTO 00000KT 10SM OVC050 00/M11 A3006 RMK AO2 
METAR KGEV 191236Z AUTO 00000KT 10SM OVC050 00/M12 A3006 RMK AO2 
METAR KGEV 191216Z AUTO 16003KT 10SM BKN055 OVC065 00/M10 A3006 RMK AO2 
METAR KGEV 191156Z AUTO 00000KT 10SM BKN055 OVC065 00/M11 A3002 RMK AO2 
METAR KGEV 191136Z AUTO 00000KT 10SM BKN065 OVC070 00/M12 A3004 RMK AO2 
METAR KGEV 191116Z AUTO 00000KT 10SM OVC075 00/M12 A3004 RMK AO2 
METAR KGEV 191056Z AUTO 04003KT 10SM SCT060 OVC075 00/M12 A3004 RMK AO2 
METAR KGEV 191036Z AUTO 30005KT 10SM BKN060 OVC075 00/M11 A3007 RMK AO2 
METAR KGEV 191016Z AUTO 32005KT 10SM OVC060 00/M12 A3004 RMK AO2 
METAR KGEV 190956Z AUTO 31005KT 10SM OVC060 00/M12 A3005 RMK AO2 
METAR KGEV 190936Z AUTO 30008KT 10SM SCT060 SCT080 BKN090 00/M13 A3005 RMK AO2 
METAR KGEV 190916Z AUTO 28014KT 10SM SCT100 00/M14 A3007 RMK AO2 
METAR KGEV 190856Z AUTO 28008KT 10SM CLR 00/M15 A3005 RMK AO2 
METAR KGEV 190836Z AUTO 28009G17KT 10SM SCT120 00/M15 A3005 RMK AO2 
METAR KGEV 190816Z AUTO 28009KT 10SM SCT120 00/M14 A3007 RMK AO2 
METAR KGEV 190756Z AUTO 28010KT 10SM SCT120 00/M15 A3007 RMK AO2 
METAR KGEV 190736Z AUTO 28011G15KT 10SM BKN120 00/M15 A3008 RMK AO2 
METAR KGEV 190716Z AUTO 28009G17KT 10SM BKN120 00/M15 A3008 RMK AO2 
METAR KGEV 190656Z AUTO 28010KT 10SM BKN120 00/M14 A3007 RMK AO2 
METAR KGEV 190636Z AUTO 20003KT 10SM SCT120 00/M13 A3004 RMK AO2 
METAR KGEV 190616Z AUTO 14003KT 10SM SCT120 00/M14 A3002 RMK AO2 
METAR KGEV 190556Z AUTO 23004G18KT 10SM CLR 01/M13 A3004 RMK AO2 
METAR KGEV 190536Z AUTO 32009G16KT 271V031 10SM CLR 00/M15 A3003 RMK AO2 
METAR KGEV 190516Z AUTO 31012G31KT 10SM CLR 00/M18 A3001 RMK AO2 
METAR KGEV 190456Z AUTO 30019G28KT 281V341 10SM CLR 00/M18 A3002 RMK AO2 
METAR KGEV 190436Z AUTO 30007G24KT 10SM CLR 00/M18 A3002 RMK AO2 
METAR KGEV 190416Z AUTO 26011G25KT 221V301 10SM CLR 00/M17 A3004 RMK AO2 
METAR KGEV 190356Z AUTO 28015G26KT 241V311 10SM SCT110 00/M17 A3007 RMK AO2 
METAR KGEV 190336Z AUTO 28016G26KT 10SM SCT100 SCT110 00/M17 A3004 RMK AO2 
METAR KGEV 190316Z AUTO 28022G27KT 10SM SCT100 SCT120 00/M18 A3005 RMK AO2 
METAR KGEV 190256Z AUTO 28015G22KT 10SM CLR 00/M18 A3005 RMK AO2 
METAR KGEV 190236Z AUTO 28015G21KT 10SM SCT090 SCT110 00/M19 A3004 RMK AO2 
METAR KGEV 190216Z AUTO 27012KT 10SM SCT100 SCT120 00/M17 A3004 RMK AO2 
METAR KGEV 190156Z AUTO 30011G15KT 10SM SCT110 00/M17 A3004 RMK AO2 
METAR KGEV 190136Z AUTO 26008KT 231V291 10SM SCT110 00/M16 A3006 RMK AO2 
METAR KGEV 190116Z AUTO 24006KT 10SM CLR 00/M14 A3007 RMK AO2 
METAR KGEV 190056Z AUTO 00000KT 10SM SCT120 M01/M07 A3009 RMK AO2 
METAR KGEV 190036Z AUTO 26007KT 10SM SCT110 00/M12 A3008 RMK AO2 
METAR KGEV 190016Z AUTO 00000KT 10SM CLR M01/M07 A3006 RMK AO2 
METAR KGEV 182356Z AUTO 00000KT 10SM CLR M02/M06 A3006 RMK AO2 
METAR KGEV 182336Z AUTO 00000KT 10SM SCT110 M02/M06 A3005 RMK AO2 
METAR KGEV 182316Z AUTO 00000KT 10SM BKN110 M01/M06 A3005 RMK AO2 
METAR KGEV 182256Z AUTO 00000KT 10SM SCT110 M01/M06 A3006 RMK AO2 
METAR KGEV 182236Z AUTO 14003KT 10SM SCT100 M01/M06 A3006 RMK AO2 
METAR KGEV 182216Z AUTO 00000KT 10SM SCT110 M01/M06 A3004 RMK AO2 
METAR KGEV 182156Z AUTO 00000KT 10SM CLR M01/M06 A3002 RMK AO2 
METAR KGEV 182136Z AUTO 00000KT 10SM CLR 00/M06 A3003 RMK AO2 
METAR KGEV 182116Z AUTO 00000KT 10SM CLR 00/M06 A3005 RMK AO2 
METAR KGEV 182056Z AUTO 00000KT 10SM CLR 00/M06 A3006 RMK AO2 
METAR KGEV 182036Z AUTO 00000KT 10SM CLR 00/M06 A3007 RMK AO2 
METAR KGEV 182016Z AUTO 00000KT 10SM CLR 00/M07 A3006 RMK AO2 
METAR KGEV 181956Z AUTO 00000KT 10SM CLR 00/M06 A3006 RMK AO2 
METAR KGEV 181936Z AUTO 17004KT 10SM CLR 00/M06 A3006 RMK AO2 
METAR KGEV 181916Z AUTO 15003KT 10SM CLR 00/M06 A3006 RMK AO2 
METAR KGEV 181856Z AUTO 00000KT 10SM CLR 00/M07 A3007 RMK AO2 
METAR KGEV 181836Z AUTO 00000KT 10SM CLR 00/M07 A3008 RMK AO2 
METAR KGEV 181816Z AUTO 00000KT 10SM CLR 00/M07 A3008 RMK AO2 
METAR KGEV 181756Z AUTO 00000KT 10SM CLR 00/M06 A3008 RMK AO2 
METAR KGEV 181736Z AUTO 00000KT 10SM CLR 00/M07 A3008 RMK AO2 
METAR KGEV 181716Z AUTO 00000KT 10SM CLR 00/M07 A3009 RMK AO2 
METAR KGEV 181656Z AUTO 00000KT 10SM CLR 00/M07 A3011 RMK AO2 
METAR KGEV 181636Z AUTO 00000KT 10SM CLR M01/M07 A3011 RMK AO2 
METAR KGEV 181616Z AUTO 00000KT 10SM CLR M02/M07 A3012 RMK AO2 
METAR KGEV 181556Z AUTO 00000KT 10SM CLR M02/M07 A3012 RMK AO2